createdAt,value
2018-06-21T00:00:44.983Z,19.24
2018-06-21T00:03:13.615Z,19.21
2018-06-21T00:05:42.226Z,19.12
2018-06-21T00:08:10.760Z,19.12
2018-06-21T00:10:39.541Z,19.08
2018-06-21T00:13:08.281Z,19.07
2018-06-21T00:15:36.953Z,19.02
2018-06-21T00:18:05.937Z,18.98
2018-06-21T00:20:34.680Z,18.96
2018-06-21T00:23:03.366Z,18.96
2018-06-21T00:25:32.060Z,18.92
2018-06-21T00:28:00.775Z,18.92
2018-06-21T00:30:29.303Z,18.91
2018-06-21T00:32:57.952Z,18.87
2018-06-21T00:35:26.527Z,18.90
2018-06-21T00:37:55.067Z,18.88
2018-06-21T00:40:23.697Z,18.87
2018-06-21T00:42:52.420Z,18.83
2018-06-21T00:45:20.957Z,18.83
2018-06-21T00:47:49.536Z,18.75
2018-06-21T00:50:18.393Z,18.73
2018-06-21T00:52:46.940Z,18.69
2018-06-21T00:55:22.795Z,18.70
2018-06-21T00:57:51.345Z,18.69
2018-06-21T01:00:19.886Z,18.67
2018-06-21T01:02:48.478Z,18.67
2018-06-21T01:05:17.050Z,18.64
2018-06-21T01:07:45.705Z,18.61
2018-06-21T01:10:14.242Z,18.62
2018-06-21T01:12:42.847Z,18.57
2018-06-21T01:15:11.529Z,18.52
2018-06-21T01:17:40.250Z,18.46
2018-06-21T01:20:08.915Z,18.39
2018-06-21T01:22:37.520Z,18.37
2018-06-21T01:25:06.264Z,18.39
2018-06-21T01:27:34.823Z,18.36
2018-06-21T01:30:03.464Z,18.34
2018-06-21T01:32:32.133Z,18.35
2018-06-21T01:35:00.796Z,18.34
2018-06-21T01:37:29.363Z,18.32
2018-06-21T01:39:58.025Z,18.28
2018-06-21T01:42:29.545Z,18.27
2018-06-21T01:44:58.287Z,18.25
2018-06-21T01:47:26.914Z,18.26
2018-06-21T01:49:55.576Z,18.22
2018-06-21T01:52:24.179Z,18.22
2018-06-21T01:54:52.866Z,18.21
2018-06-21T01:57:21.531Z,18.12
2018-06-21T01:59:50.139Z,18.13
2018-06-21T02:02:18.821Z,18.08
2018-06-21T02:04:47.418Z,18.10
2018-06-21T02:07:15.963Z,18.08
2018-06-21T02:09:44.598Z,18.04
2018-06-21T02:12:13.260Z,18.02
2018-06-21T02:14:41.879Z,18.01
2018-06-21T02:17:10.658Z,18.00
2018-06-21T02:19:39.291Z,17.98
2018-06-21T02:22:07.873Z,17.94
2018-06-21T02:24:36.440Z,17.91
2018-06-21T02:27:05.234Z,17.90
2018-06-21T02:29:33.818Z,17.88
2018-06-21T02:32:02.404Z,17.81
2018-06-21T02:34:30.982Z,17.80
2018-06-21T02:36:59.660Z,17.73
2018-06-21T02:39:28.318Z,17.72
2018-06-21T02:41:56.904Z,17.72
2018-06-21T02:44:25.497Z,17.71
2018-06-21T02:46:54.277Z,17.68
2018-06-21T02:49:22.964Z,17.68
2018-06-21T02:51:51.519Z,17.66
2018-06-21T02:54:20.204Z,17.64
2018-06-21T02:56:48.916Z,17.57
2018-06-21T02:59:17.467Z,17.60
2018-06-21T03:01:46.089Z,17.61
2018-06-21T03:04:14.695Z,17.59
2018-06-21T03:06:43.382Z,17.59
2018-06-21T03:09:11.979Z,17.58
2018-06-21T03:11:40.525Z,17.57
2018-06-21T03:14:09.164Z,17.56
2018-06-21T03:16:37.737Z,17.59
2018-06-21T03:19:06.337Z,17.60
2018-06-21T03:21:34.942Z,17.57
2018-06-21T03:24:03.548Z,17.61
2018-06-21T03:26:32.090Z,17.61
2018-06-21T03:29:00.678Z,17.62
2018-06-21T03:31:29.242Z,17.63
2018-06-21T03:33:57.950Z,17.63
2018-06-21T03:36:26.547Z,17.63
2018-06-21T03:38:55.132Z,17.64
2018-06-21T03:41:23.666Z,17.65
2018-06-21T03:43:52.296Z,17.67
2018-06-21T03:46:20.852Z,17.71
2018-06-21T03:48:49.375Z,17.73
2018-06-21T03:51:17.959Z,17.75
2018-06-21T03:53:46.594Z,17.79
2018-06-21T03:56:15.086Z,17.80
2018-06-21T03:58:43.788Z,17.81
2018-06-21T04:01:12.397Z,17.84
2018-06-21T04:03:41.024Z,17.86
2018-06-21T04:06:09.640Z,17.91
2018-06-21T04:08:38.188Z,17.98
2018-06-21T04:11:06.734Z,18.00
2018-06-21T04:13:35.382Z,18.02
2018-06-21T04:16:03.921Z,18.10
2018-06-21T04:18:46.868Z,18.15
2018-06-21T04:21:15.441Z,18.23
2018-06-21T04:23:43.934Z,18.31
2018-06-21T04:26:12.687Z,18.38
2018-06-21T04:28:41.408Z,18.40
2018-06-21T04:31:10.082Z,18.47
2018-06-21T04:33:38.655Z,18.54
2018-06-21T04:36:07.213Z,18.65
2018-06-21T04:38:37.728Z,18.74
2018-06-21T04:41:06.544Z,18.84
2018-06-21T04:43:35.112Z,18.85
2018-06-21T04:46:03.922Z,18.97
2018-06-21T04:48:32.544Z,19.10
2018-06-21T04:51:01.273Z,19.19
2018-06-21T04:53:29.845Z,19.34
2018-06-21T04:55:58.562Z,19.55
2018-06-21T04:58:27.170Z,19.68
2018-06-21T05:00:55.768Z,19.92
2018-06-21T05:03:24.347Z,20.12
2018-06-21T05:05:52.947Z,20.15
2018-06-21T05:08:21.632Z,20.07
2018-06-21T05:10:50.599Z,19.98
2018-06-21T05:13:19.192Z,19.91
2018-06-21T05:15:47.950Z,19.98
2018-06-21T05:18:16.526Z,20.08
2018-06-21T05:20:45.074Z,20.15
2018-06-21T05:23:13.707Z,20.29
2018-06-21T05:25:42.417Z,20.41
2018-06-21T05:28:11.001Z,20.47
2018-06-21T05:30:39.555Z,20.62
2018-06-21T05:33:08.437Z,20.75
2018-06-21T05:35:36.979Z,20.98
2018-06-21T05:38:05.555Z,21.26
2018-06-21T05:40:36.440Z,21.55
2018-06-21T05:43:05.520Z,22.09
2018-06-21T05:45:34.751Z,22.72
2018-06-21T05:48:04.252Z,23.20
2018-06-21T05:50:33.780Z,23.51
2018-06-21T05:53:02.643Z,23.36
2018-06-21T05:55:32.438Z,23.61
2018-06-21T05:58:01.650Z,23.59
2018-06-21T06:00:44.915Z,23.45
2018-06-21T06:03:13.553Z,23.52
2018-06-21T06:05:42.194Z,23.41
2018-06-21T06:08:10.844Z,23.44
2018-06-21T06:10:39.374Z,23.54
2018-06-21T06:13:07.957Z,23.62
2018-06-21T06:15:36.533Z,23.65
2018-06-21T06:18:05.160Z,24.18
2018-06-21T06:20:33.698Z,24.38
2018-06-21T06:23:02.293Z,24.53
2018-06-21T06:25:30.833Z,24.69
2018-06-21T06:27:59.375Z,24.85
2018-06-21T06:30:27.937Z,24.68
2018-06-21T06:32:56.486Z,24.90
2018-06-21T06:35:28.429Z,24.99
2018-06-21T06:37:57.312Z,24.77
2018-06-21T06:40:25.902Z,24.16
2018-06-21T06:42:54.354Z,24.18
2018-06-21T06:45:22.929Z,23.99
2018-06-21T06:47:51.663Z,23.98
2018-06-21T06:50:20.288Z,24.04
2018-06-21T06:52:48.913Z,23.65
2018-06-21T06:55:17.411Z,23.93
2018-06-21T06:57:45.942Z,23.75
2018-06-21T07:00:14.431Z,23.67
2018-06-21T07:02:43.298Z,23.57
2018-06-21T07:05:11.812Z,23.49
2018-06-21T07:07:40.344Z,23.61
2018-06-21T07:10:08.911Z,23.64
2018-06-21T07:12:37.581Z,23.45
2018-06-21T07:15:06.623Z,23.67
2018-06-21T07:17:35.260Z,23.73
2018-06-21T07:20:03.863Z,23.85
2018-06-21T07:22:32.394Z,24.06
2018-06-21T07:25:00.995Z,24.18
2018-06-21T07:27:29.496Z,24.23
2018-06-21T07:29:58.029Z,24.21
2018-06-21T07:32:26.640Z,24.30
2018-06-21T07:34:55.266Z,24.66
2018-06-21T07:37:23.916Z,24.99
2018-06-21T07:39:52.568Z,25.16
2018-06-21T07:42:21.192Z,25.30
2018-06-21T07:44:49.824Z,25.54
2018-06-21T07:47:18.441Z,25.13
2018-06-21T07:49:46.932Z,24.85
2018-06-21T07:52:15.493Z,24.63
2018-06-21T07:54:44.043Z,24.15
2018-06-21T07:57:12.602Z,23.99
2018-06-21T07:59:41.133Z,23.70
2018-06-21T08:02:09.803Z,23.43
2018-06-21T08:04:38.321Z,23.19
2018-06-21T08:07:07.046Z,23.07
2018-06-21T08:09:35.685Z,22.83
2018-06-21T08:12:04.264Z,22.64
2018-06-21T08:14:32.912Z,22.37
2018-06-21T08:17:01.489Z,22.20
2018-06-21T08:19:30.132Z,20.92
2018-06-21T08:21:58.723Z,20.12
2018-06-21T08:24:27.265Z,19.16
2018-06-21T08:26:55.804Z,18.94
2018-06-21T08:29:24.376Z,18.39
2018-06-21T08:31:52.959Z,17.87
2018-06-21T08:34:21.561Z,17.71
2018-06-21T08:36:50.124Z,17.65
2018-06-21T08:39:18.778Z,17.49
2018-06-21T08:41:47.313Z,17.25
2018-06-21T08:44:15.914Z,17.19
2018-06-21T08:46:44.562Z,17.11
2018-06-21T08:49:13.178Z,16.96
2018-06-21T08:51:41.838Z,16.94
2018-06-21T08:54:10.389Z,16.71
2018-06-21T08:56:39.147Z,16.52
2018-06-21T08:59:07.841Z,16.46
2018-06-21T09:01:36.466Z,16.31
2018-06-21T09:04:05.284Z,16.22
2018-06-21T09:06:33.873Z,15.91
2018-06-21T09:09:02.398Z,15.74
2018-06-21T09:11:30.917Z,15.76
2018-06-21T09:13:59.404Z,15.64
2018-06-21T09:16:27.964Z,15.38
2018-06-21T09:18:56.861Z,15.22
2018-06-21T09:21:25.381Z,15.38
2018-06-21T09:23:53.879Z,15.32
2018-06-21T09:26:22.423Z,15.30
2018-06-21T09:28:51.037Z,15.18
2018-06-21T09:31:19.611Z,15.18
2018-06-21T09:33:48.156Z,15.17
2018-06-21T09:36:16.751Z,15.18
2018-06-21T09:40:57.328Z,15.17
2018-06-21T09:43:30.975Z,15.25
2018-06-21T09:46:04.732Z,15.08
2018-06-21T09:48:33.746Z,15.17
2018-06-21T09:51:02.381Z,15.00
2018-06-21T09:53:31.194Z,14.98
2018-06-21T09:56:00.674Z,15.29
2018-06-21T09:58:29.398Z,15.27
2018-06-21T10:01:01.820Z,15.36
2018-06-21T10:03:30.661Z,15.07
2018-06-21T10:05:59.371Z,15.29
2018-06-21T10:08:28.211Z,15.00
2018-06-21T10:10:56.885Z,15.29
2018-06-21T10:13:25.488Z,15.25
2018-06-21T10:15:54.283Z,15.05
2018-06-21T10:18:22.876Z,14.98
2018-06-21T10:20:51.561Z,15.20
2018-06-21T10:23:20.130Z,15.40
2018-06-21T10:25:48.722Z,15.48
2018-06-21T10:28:17.455Z,15.63
2018-06-21T10:30:46.085Z,15.82
2018-06-21T10:33:14.690Z,16.05
2018-06-21T10:35:43.229Z,16.19
2018-06-21T10:38:11.828Z,16.26
2018-06-21T10:40:40.428Z,16.35
2018-06-21T10:43:09.103Z,16.22
2018-06-21T10:45:37.696Z,16.27
2018-06-21T10:48:06.269Z,16.30
2018-06-21T10:50:34.857Z,16.03
2018-06-21T10:53:03.376Z,15.69
2018-06-21T10:55:32.007Z,15.67
2018-06-21T10:58:00.503Z,15.76
2018-06-21T11:00:29.134Z,15.81
2018-06-21T11:02:57.786Z,15.98
2018-06-21T11:05:26.467Z,15.98
2018-06-21T11:07:54.962Z,16.10
2018-06-21T11:10:23.574Z,16.03
2018-06-21T11:12:52.078Z,16.11
2018-06-21T11:15:20.591Z,16.26
2018-06-21T11:17:49.199Z,16.31
2018-06-21T11:20:17.838Z,16.46
2018-06-21T11:22:46.376Z,16.75
2018-06-21T11:25:15.034Z,16.85
2018-06-21T11:27:43.851Z,16.89
2018-06-21T11:30:12.528Z,17.06
2018-06-21T11:32:41.055Z,17.06
2018-06-21T11:35:09.787Z,16.95
2018-06-21T11:37:38.594Z,17.09
2018-06-21T11:40:07.151Z,17.03
2018-06-21T11:42:35.765Z,16.86
2018-06-21T11:45:04.390Z,16.69
2018-06-21T11:47:32.872Z,16.62
2018-06-21T11:50:01.390Z,16.51
2018-06-21T11:52:29.956Z,16.64
2018-06-21T11:54:58.491Z,16.74
2018-06-21T11:57:27.053Z,16.67
2018-06-21T11:59:55.665Z,16.58
2018-06-21T12:02:24.275Z,16.28
2018-06-21T12:04:52.902Z,15.52
2018-06-21T12:07:21.538Z,14.84
2018-06-21T12:09:50.167Z,14.48
2018-06-21T12:12:18.779Z,14.47
2018-06-21T12:14:47.399Z,14.78
2018-06-21T12:17:16.004Z,14.92
2018-06-21T12:19:44.568Z,15.05
2018-06-21T12:22:13.128Z,15.32
2018-06-21T12:24:41.773Z,15.27
2018-06-21T12:27:10.328Z,15.46
2018-06-21T12:29:38.913Z,15.53
2018-06-21T12:32:07.507Z,15.67
2018-06-21T12:34:36.215Z,15.66
2018-06-21T12:37:04.893Z,15.80
2018-06-21T12:39:33.810Z,15.97
2018-06-21T12:42:02.507Z,16.12
2018-06-21T12:44:31.169Z,15.98
2018-06-21T12:46:59.684Z,16.10
2018-06-21T12:49:28.349Z,16.04
2018-06-21T12:51:57.149Z,16.38
2018-06-21T12:54:25.950Z,16.46
2018-06-21T12:56:54.561Z,16.59
2018-06-21T12:59:23.149Z,16.99
2018-06-21T13:01:51.764Z,17.26
2018-06-21T13:04:20.322Z,17.51
2018-06-21T13:06:48.798Z,17.33
2018-06-21T13:11:30.193Z,17.41
2018-06-21T13:14:09.804Z,16.29
2018-06-21T13:16:38.439Z,15.85
2018-06-21T13:19:06.961Z,15.67
2018-06-21T13:21:35.501Z,15.66
2018-06-21T13:24:04.133Z,15.69
2018-06-21T13:26:32.699Z,15.63
2018-06-21T13:29:01.193Z,15.60
2018-06-21T13:31:29.769Z,15.72
2018-06-21T13:33:58.382Z,15.50
2018-06-21T13:36:26.889Z,15.68
2018-06-21T13:38:55.508Z,15.60
2018-06-21T13:41:24.124Z,15.54
2018-06-21T13:43:52.644Z,15.80
2018-06-21T13:46:21.162Z,16.02
2018-06-21T13:48:49.626Z,16.27
2018-06-21T13:51:18.268Z,16.57
2018-06-21T13:53:46.837Z,16.66
2018-06-21T13:56:15.401Z,16.98
2018-06-21T13:58:43.862Z,16.95
2018-06-21T14:01:12.429Z,16.91
2018-06-21T14:03:40.979Z,17.01
2018-06-21T14:06:09.791Z,17.03
2018-06-21T14:08:38.552Z,16.99
2018-06-21T14:11:07.009Z,17.02
2018-06-21T14:13:35.591Z,17.03
2018-06-21T14:16:06.220Z,16.95
2018-06-21T14:18:37.174Z,17.15
2018-06-21T14:21:07.810Z,17.38
2018-06-21T14:23:36.687Z,17.38
2018-06-21T14:26:05.268Z,17.33
2018-06-21T14:28:33.869Z,17.46
2018-06-21T14:31:02.554Z,16.96
2018-06-21T14:33:31.216Z,16.80
2018-06-21T14:35:59.838Z,16.84
2018-06-21T14:38:28.508Z,17.00
2018-06-21T14:40:57.062Z,17.15
2018-06-21T14:43:25.814Z,17.29
2018-06-21T14:45:54.470Z,17.28
2018-06-21T14:48:23.288Z,17.21
2018-06-21T14:50:52.081Z,17.16
2018-06-21T14:53:20.753Z,17.12
2018-06-21T14:55:49.436Z,17.08
2018-06-21T14:58:18.180Z,17.08
2018-06-21T15:00:46.719Z,17.07
2018-06-21T15:03:15.414Z,17.08
2018-06-21T15:05:43.975Z,17.04
2018-06-21T15:08:12.649Z,17.14
2018-06-21T15:10:41.349Z,16.90
2018-06-21T15:13:10.094Z,16.94
2018-06-21T15:15:38.774Z,16.95
2018-06-21T15:18:07.389Z,16.87
2018-06-21T15:20:36.082Z,16.96
2018-06-21T15:23:04.889Z,16.92
2018-06-21T15:25:33.515Z,16.93
2018-06-21T15:28:02.168Z,17.06
2018-06-21T15:30:31.025Z,17.11
2018-06-21T15:32:59.739Z,17.27
2018-06-21T15:35:28.468Z,17.20
2018-06-21T15:37:57.046Z,16.96
2018-06-21T15:40:25.676Z,16.80
2018-06-21T15:42:54.380Z,16.84
2018-06-21T15:45:23.064Z,16.99
2018-06-21T15:47:51.628Z,17.19
2018-06-21T15:50:20.191Z,17.09
2018-06-21T15:52:48.926Z,17.02
2018-06-21T15:55:17.585Z,16.87
2018-06-21T15:57:48.189Z,16.84
2018-06-21T16:00:16.877Z,16.91
2018-06-21T16:02:45.389Z,17.01
2018-06-21T16:05:13.906Z,17.13
2018-06-21T16:07:42.621Z,17.07
2018-06-21T16:10:12.879Z,17.16
2018-06-21T16:12:41.733Z,17.17
2018-06-21T16:15:10.341Z,17.16
2018-06-21T16:17:42.247Z,17.13
2018-06-21T16:20:14.903Z,17.16
2018-06-21T16:22:46.530Z,17.05
2018-06-21T16:25:16.993Z,17.12
2018-06-21T16:27:56.976Z,17.17
2018-06-21T16:30:25.590Z,17.02
2018-06-21T16:32:54.184Z,16.93
2018-06-21T16:35:23.410Z,16.73
2018-06-21T16:37:52.158Z,16.38
2018-06-21T16:40:21.388Z,16.01
2018-06-21T16:42:49.987Z,15.90
2018-06-21T16:45:19.094Z,15.67
2018-06-21T16:47:47.864Z,15.73
2018-06-21T16:50:16.540Z,15.69
2018-06-21T16:52:45.395Z,15.57
2018-06-21T16:55:14.133Z,15.55
2018-06-21T16:57:42.982Z,15.53
2018-06-21T17:00:11.678Z,15.38
2018-06-21T17:02:40.272Z,15.05
2018-06-21T17:05:09.488Z,15.31
2018-06-21T17:07:38.555Z,15.38
2018-06-21T17:10:07.550Z,15.46
2018-06-21T17:12:37.460Z,15.38
2018-06-21T17:15:06.698Z,15.22
2018-06-21T17:17:35.886Z,15.32
2018-06-21T17:20:05.242Z,15.21
2018-06-21T17:22:35.520Z,15.27
2018-06-21T17:25:05.337Z,15.32
2018-06-21T17:27:46.601Z,15.18
2018-06-21T17:30:15.742Z,15.17
2018-06-21T17:32:44.976Z,15.14
2018-06-21T17:35:15.049Z,15.15
2018-06-21T17:37:44.100Z,15.14
2018-06-21T17:40:12.817Z,15.05
2018-06-21T17:42:41.467Z,14.90
2018-06-21T17:45:10.195Z,14.98
2018-06-21T17:47:39.253Z,14.98
2018-06-21T17:50:08.390Z,15.02
2018-06-21T17:52:37.029Z,15.03
2018-06-21T17:55:06.269Z,14.95
2018-06-21T17:57:35.190Z,14.85
2018-06-21T18:00:04.411Z,14.93
2018-06-21T18:02:32.975Z,14.83
2018-06-21T18:05:01.933Z,14.76
2018-06-21T18:07:30.904Z,14.73
2018-06-21T18:09:59.711Z,14.59
2018-06-21T18:12:28.458Z,14.63
2018-06-21T18:14:57.397Z,14.55
2018-06-21T18:17:25.994Z,14.39
2018-06-21T18:19:54.576Z,14.35
2018-06-21T18:22:23.208Z,14.29
2018-06-21T18:24:52.016Z,14.19
2018-06-21T18:27:21.012Z,14.13
2018-06-21T18:29:50.066Z,14.24
2018-06-21T18:32:19.001Z,14.13
2018-06-21T18:34:47.579Z,14.09
2018-06-21T18:37:16.322Z,14.06
2018-06-21T18:39:45.394Z,13.99
2018-06-21T18:42:14.078Z,14.06
2018-06-21T18:44:42.580Z,13.98
2018-06-21T18:47:11.118Z,13.89
2018-06-21T18:49:39.638Z,13.93
2018-06-21T18:52:08.695Z,13.88
2018-06-21T18:54:37.441Z,13.86
2018-06-21T18:57:06.340Z,13.77
2018-06-21T18:59:35.296Z,13.85
2018-06-21T19:02:04.149Z,13.87
2018-06-21T19:04:33.225Z,13.82
2018-06-21T19:07:09.595Z,13.81
2018-06-21T19:09:43.348Z,13.89
2018-06-21T19:12:14.054Z,13.95
2018-06-21T19:14:42.804Z,13.94
2018-06-21T19:17:11.660Z,13.78
2018-06-21T19:19:40.584Z,13.75
2018-06-21T19:22:09.490Z,13.72
2018-06-21T19:24:39.245Z,13.64
2018-06-21T19:27:08.753Z,13.55
2018-06-21T19:29:41.292Z,13.48
2018-06-21T19:32:10.139Z,13.45
2018-06-21T19:34:43.896Z,13.42
2018-06-21T19:37:15.602Z,13.39
2018-06-21T19:39:51.714Z,13.31
2018-06-21T19:42:20.288Z,13.24
2018-06-21T19:44:49.343Z,13.23
2018-06-21T19:47:18.213Z,13.15
2018-06-21T19:49:47.342Z,13.04
2018-06-21T19:52:16.565Z,12.96
2018-06-21T19:54:45.420Z,12.96
2018-06-21T19:57:14.125Z,12.92
2018-06-21T19:59:42.903Z,12.84
2018-06-21T20:02:11.557Z,12.75
2018-06-21T20:04:40.308Z,12.67
2018-06-21T20:07:09.444Z,12.73
2018-06-21T20:09:38.021Z,12.60
2018-06-21T20:12:06.762Z,12.56
2018-06-21T20:14:36.071Z,12.62
2018-06-21T20:17:04.758Z,12.54
2018-06-21T20:20:38.631Z,12.48
2018-06-21T20:23:07.345Z,12.37
2018-06-21T20:25:35.879Z,12.41
2018-06-21T20:28:04.552Z,12.43
2018-06-21T20:30:36.314Z,12.34
2018-06-21T20:33:05.585Z,12.30
2018-06-21T20:35:34.242Z,12.36
2018-06-21T20:38:02.883Z,12.27
2018-06-21T20:40:31.578Z,12.16
2018-06-21T20:43:00.266Z,12.15
2018-06-21T20:45:28.906Z,12.12
2018-06-21T20:47:57.578Z,12.10
2018-06-21T20:50:26.322Z,12.12
2018-06-21T20:52:56.443Z,12.07
2018-06-21T20:55:25.169Z,12.05
2018-06-21T20:57:54.675Z,12.09
2018-06-21T21:00:23.567Z,12.04
2018-06-21T21:02:52.674Z,12.04
2018-06-21T21:05:21.660Z,11.95
2018-06-21T21:07:51.104Z,11.97
2018-06-21T21:10:20.279Z,11.93
2018-06-21T21:12:48.962Z,11.89
2018-06-21T21:15:17.639Z,11.89
2018-06-21T21:17:46.308Z,11.83
2018-06-21T21:20:15.115Z,11.84
2018-06-21T21:22:44.912Z,11.82
2018-06-21T21:25:13.430Z,11.80
2018-06-21T21:27:41.983Z,11.82
2018-06-21T21:30:10.693Z,11.75
2018-06-21T21:32:39.402Z,11.76
2018-06-21T21:35:08.037Z,11.74
2018-06-21T21:37:36.629Z,11.76
2018-06-21T21:40:06.638Z,11.74
2018-06-21T21:42:36.358Z,11.67
2018-06-21T21:45:05.102Z,11.63
2018-06-21T21:47:34.030Z,11.64
2018-06-21T21:50:03.183Z,11.55
2018-06-21T21:52:31.864Z,11.51
2018-06-21T21:55:00.436Z,11.47
2018-06-21T21:57:29.157Z,11.48
2018-06-21T21:59:57.777Z,11.39
2018-06-21T22:02:26.274Z,11.34
2018-06-21T22:04:54.882Z,11.28
2018-06-21T22:07:23.978Z,11.22
2018-06-21T22:09:52.649Z,11.18
2018-06-21T22:12:21.320Z,11.18
2018-06-21T22:14:50.336Z,11.20
2018-06-21T22:17:19.155Z,11.16
2018-06-21T22:19:47.730Z,11.18
2018-06-21T22:22:16.306Z,11.10
2018-06-21T22:24:46.205Z,11.18
2018-06-21T22:27:14.757Z,11.12
2018-06-21T22:29:43.634Z,11.08
2018-06-21T22:32:13.105Z,11.07
2018-06-21T22:34:43.013Z,11.01
2018-06-21T22:37:11.634Z,10.98
2018-06-21T22:39:40.488Z,10.97
2018-06-21T22:42:09.174Z,11.01
2018-06-21T22:44:37.741Z,10.88
2018-06-21T22:47:06.541Z,10.91
2018-06-21T22:49:35.126Z,10.92
2018-06-21T22:52:04.015Z,10.87
2018-06-21T22:54:32.590Z,10.85
2018-06-21T22:57:01.290Z,10.79
2018-06-21T22:59:29.857Z,10.82
2018-06-21T23:01:58.846Z,10.81
2018-06-21T23:04:27.909Z,10.73
2018-06-21T23:06:56.794Z,10.75
2018-06-21T23:09:25.474Z,10.75
2018-06-21T23:11:54.014Z,10.75
2018-06-21T23:14:22.691Z,10.64
2018-06-21T23:16:54.441Z,10.61
2018-06-21T23:19:30.698Z,10.57
2018-06-21T23:22:00.215Z,10.63
2018-06-21T23:24:28.858Z,10.55
2018-06-21T23:26:57.820Z,10.54
2018-06-21T23:29:26.435Z,10.61
2018-06-21T23:31:55.140Z,10.59
2018-06-21T23:34:23.887Z,10.58
2018-06-21T23:36:52.465Z,10.59
2018-06-21T23:39:20.997Z,10.59
2018-06-21T23:41:49.538Z,10.64
2018-06-21T23:44:18.014Z,10.63
2018-06-21T23:46:46.589Z,10.66
2018-06-21T23:49:15.175Z,10.68
2018-06-21T23:51:43.688Z,10.69
2018-06-21T23:54:13.527Z,10.69
2018-06-21T23:56:43.460Z,10.73
2018-06-21T23:59:12.002Z,10.70
